Airfield :
LOGIN :

Register | Disclaimer

   EN    FR    IT 

 










Legend :    VFR   Marginal VFR   IFR   Intensive IFR   Very Intensive IFR
Visi :
Ceiling :
>= 8 km
>= 3000ft
5 to 8 km
1000 to 3000 ft
1500m to 5 km
500 to 1000 ft
800 to 1500m
200 to 500 ft
< 800m
< 200 ft
Symbols :   Thunderstorms  Fog  Heavy snow  Heavy precipitations  Wind > 20 kt
SIGMETs :     Misc.  Thunderstorms  Icing  Turbulence  Mountain Waves  Volcanic Ashes






- Airport Elevation : 291 ft
- IATA code : ORY


LFPO - Paris-Orly

CURRENT METAR :
  • 170000Z 23013KT 9999 FEW015 BKN120 09/07 Q1015 NOSIG

EXPIRED METARs :
  • 162330Z 23010KT 200V260 9999 FEW015 SCT066 BKN100 09/07 Q1014 NOSIG
  • 162300Z 23010KT 210V270 9999 FEW013 BKN066 09/07 Q1014 NOSIG
  • 162230Z 22010KT 7000 -RA BKN013 BKN026 BKN066 09/08 Q1014 TEMPO 2000 RA BKN012
  • 162200Z 24011KT 210V270 7000 -RA BKN013 BKN026 BKN063 09/08 Q1013 TEMPO 2000 RA BKN012
  • 162130Z 25010KT 9999 -RA BKN012 BKN033 BKN050 09/08 Q1013 TEMPO 2000 RA BKN012

TAF TAF LFPO
Valid from the 17 at 00:00 until the 18 at 06:00 UTC


162300Z 1700/1806 22010G20KT CAVOK
PROB40
TEMPO 1700/1708 -RA BKN012 BKN030
TEMPO 1712/1724 -SHRA BKN025
PROB40
TEMPO 1712/1718 23015G30KT 3000 SHRA BKN020TCU
PROB30
TEMPO 1712/1716 23020G40KT BKN020CB
ATIS : +33 1 49 75 65 80



MET'MAP, your aeronautical weather chart ! - Copyright ORBIFLY December 2007 - Disclaimer

ORBIFLY MET'MAP TEAM :

Programming & Development : Alexandra Zaïnal
Concept & original design : Baudouin d'Aumeries
Assistance for programming : Marc-Olivier Méhu
Technical & hardware support : Manuel Goepfert

Contact : metmap@orbifly.com




SOURCES & CREDITS :

   NOAA